sensor_id;sensor_type;location;lat;lon;timestamp;P1;durP1;ratioP1;P2;durP2;ratioP2
38130;SDS011;23947;51.894;4.622;2022-07-22T00:01:10;6.97;;;1.02;;
38130;SDS011;23947;51.894;4.622;2022-07-22T00:03:35;13.23;;;1.00;;
38130;SDS011;23947;51.894;4.622;2022-07-22T00:06:01;8.23;;;0.95;;
38130;SDS011;23947;51.894;4.622;2022-07-22T00:08:27;10.25;;;1.15;;
38130;SDS011;23947;51.894;4.622;2022-07-22T00:10:53;12.00;;;1.10;;
38130;SDS011;23947;51.894;4.622;2022-07-22T00:13:18;11.48;;;0.98;;
38130;SDS011;23947;51.894;4.622;2022-07-22T00:15:44;11.38;;;1.15;;
38130;SDS011;23947;51.894;4.622;2022-07-22T00:18:09;13.27;;;1.15;;
38130;SDS011;23947;51.894;4.622;2022-07-22T00:20:35;8.73;;;0.90;;
38130;SDS011;23947;51.894;4.622;2022-07-22T00:23:01;7.10;;;1.10;;
38130;SDS011;23947;51.894;4.622;2022-07-22T00:25:27;11.32;;;1.00;;
38130;SDS011;23947;51.894;4.622;2022-07-22T00:27:53;10.70;;;1.00;;
38130;SDS011;23947;51.894;4.622;2022-07-22T00:30:19;12.02;;;1.10;;
38130;SDS011;23947;51.894;4.622;2022-07-22T00:32:45;12.10;;;1.25;;
38130;SDS011;23947;51.894;4.622;2022-07-22T00:35:11;9.20;;;1.13;;
38130;SDS011;23947;51.894;4.622;2022-07-22T00:37:36;8.85;;;1.00;;
38130;SDS011;23947;51.894;4.622;2022-07-22T00:40:03;9.05;;;0.80;;
38130;SDS011;23947;51.894;4.622;2022-07-22T00:42:29;13.32;;;1.25;;
38130;SDS011;23947;51.894;4.622;2022-07-22T00:44:55;8.52;;;1.00;;
38130;SDS011;23947;51.894;4.622;2022-07-22T00:47:21;8.95;;;0.90;;
38130;SDS011;23947;51.894;4.622;2022-07-22T00:49:47;10.23;;;1.23;;
38130;SDS011;23947;51.894;4.622;2022-07-22T00:52:13;9.27;;;0.88;;
38130;SDS011;23947;51.894;4.622;2022-07-22T00:54:38;6.72;;;0.93;;
38130;SDS011;23947;51.894;4.622;2022-07-22T00:57:04;16.42;;;1.27;;
38130;SDS011;23947;51.894;4.622;2022-07-22T00:59:30;9.55;;;1.20;;
38130;SDS011;23947;51.894;4.622;2022-07-22T01:01:55;15.35;;;1.23;;
38130;SDS011;23947;51.894;4.622;2022-07-22T01:04:21;9.75;;;0.80;;
38130;SDS011;23947;51.894;4.622;2022-07-22T01:06:47;10.25;;;1.15;;
38130;SDS011;23947;51.894;4.622;2022-07-22T01:09:13;8.63;;;0.95;;
38130;SDS011;23947;51.894;4.622;2022-07-22T01:11:39;10.77;;;1.15;;
38130;SDS011;23947;51.894;4.622;2022-07-22T01:14:05;11.68;;;1.38;;
38130;SDS011;23947;51.894;4.622;2022-07-22T01:16:31;11.73;;;1.48;;
38130;SDS011;23947;51.894;4.622;2022-07-22T01:18:57;9.32;;;1.23;;
38130;SDS011;23947;51.894;4.622;2022-07-22T01:21:22;8.48;;;1.00;;
38130;SDS011;23947;51.894;4.622;2022-07-22T01:23:48;6.53;;;1.13;;
38130;SDS011;23947;51.894;4.622;2022-07-22T01:26:15;10.65;;;1.40;;
38130;SDS011;23947;51.894;4.622;2022-07-22T01:28:42;9.82;;;1.20;;
38130;SDS011;23947;51.894;4.622;2022-07-22T01:31:08;18.00;;;1.42;;
38130;SDS011;23947;51.894;4.622;2022-07-22T01:33:34;6.32;;;0.80;;
38130;SDS011;23947;51.894;4.622;2022-07-22T01:36:00;9.77;;;1.20;;
38130;SDS011;23947;51.894;4.622;2022-07-22T01:38:26;13.27;;;1.40;;
38130;SDS011;23947;51.894;4.622;2022-07-22T01:40:51;9.27;;;0.90;;
38130;SDS011;23947;51.894;4.622;2022-07-22T01:43:18;9.82;;;1.00;;
38130;SDS011;23947;51.894;4.622;2022-07-22T01:45:45;9.93;;;1.20;;
38130;SDS011;23947;51.894;4.622;2022-07-22T01:48:13;8.82;;;1.17;;
38130;SDS011;23947;51.894;4.622;2022-07-22T01:50:38;11.02;;;1.33;;
38130;SDS011;23947;51.894;4.622;2022-07-22T01:53:04;11.65;;;1.58;;
38130;SDS011;23947;51.894;4.622;2022-07-22T01:55:30;10.13;;;1.42;;
38130;SDS011;23947;51.894;4.622;2022-07-22T01:57:56;9.40;;;1.40;;
38130;SDS011;23947;51.894;4.622;2022-07-22T02:00:21;9.38;;;1.23;;
38130;SDS011;23947;51.894;4.622;2022-07-22T02:02:47;9.63;;;1.08;;
38130;SDS011;23947;51.894;4.622;2022-07-22T02:05:13;14.40;;;1.38;;
38130;SDS011;23947;51.894;4.622;2022-07-22T02:07:38;13.82;;;1.65;;
38130;SDS011;23947;51.894;4.622;2022-07-22T02:10:04;13.57;;;1.23;;
38130;SDS011;23947;51.894;4.622;2022-07-22T02:12:31;8.88;;;1.58;;
38130;SDS011;23947;51.894;4.622;2022-07-22T02:14:57;7.82;;;1.20;;
38130;SDS011;23947;51.894;4.622;2022-07-22T02:17:22;8.15;;;1.20;;
38130;SDS011;23947;51.894;4.622;2022-07-22T02:19:48;11.80;;;1.08;;
38130;SDS011;23947;51.894;4.622;2022-07-22T02:22:14;11.90;;;1.30;;
38130;SDS011;23947;51.894;4.622;2022-07-22T02:24:39;11.73;;;1.40;;
38130;SDS011;23947;51.894;4.622;2022-07-22T02:27:05;8.43;;;1.10;;
38130;SDS011;23947;51.894;4.622;2022-07-22T02:29:31;14.80;;;1.13;;
38130;SDS011;23947;51.894;4.622;2022-07-22T02:31:58;13.15;;;1.15;;
38130;SDS011;23947;51.894;4.622;2022-07-22T02:34:24;14.43;;;1.23;;
38130;SDS011;23947;51.894;4.622;2022-07-22T02:36:50;11.80;;;0.90;;
38130;SDS011;23947;51.894;4.622;2022-07-22T02:39:15;10.55;;;1.00;;
38130;SDS011;23947;51.894;4.622;2022-07-22T02:41:41;12.88;;;1.35;;
38130;SDS011;23947;51.894;4.622;2022-07-22T02:44:06;8.13;;;0.73;;
38130;SDS011;23947;51.894;4.622;2022-07-22T02:46:32;11.70;;;1.00;;
38130;SDS011;23947;51.894;4.622;2022-07-22T02:48:58;7.50;;;0.90;;
38130;SDS011;23947;51.894;4.622;2022-07-22T02:51:23;10.50;;;1.00;;
38130;SDS011;23947;51.894;4.622;2022-07-22T02:53:49;9.35;;;1.48;;
38130;SDS011;23947;51.894;4.622;2022-07-22T02:56:15;6.45;;;0.95;;
38130;SDS011;23947;51.894;4.622;2022-07-22T02:58:41;10.55;;;1.23;;
38130;SDS011;23947;51.894;4.622;2022-07-22T03:01:07;7.95;;;1.00;;
38130;SDS011;23947;51.894;4.622;2022-07-22T03:03:33;7.60;;;1.00;;
38130;SDS011;23947;51.894;4.622;2022-07-22T03:05:58;12.25;;;1.27;;
38130;SDS011;23947;51.894;4.622;2022-07-22T03:08:24;11.88;;;0.90;;
38130;SDS011;23947;51.894;4.622;2022-07-22T03:10:50;8.63;;;1.00;;
38130;SDS011;23947;51.894;4.622;2022-07-22T03:13:16;10.48;;;1.02;;
38130;SDS011;23947;51.894;4.622;2022-07-22T03:15:42;6.75;;;0.75;;
38130;SDS011;23947;51.894;4.622;2022-07-22T03:18:07;10.98;;;0.82;;
38130;SDS011;23947;51.894;4.622;2022-07-22T03:20:33;10.82;;;1.10;;
38130;SDS011;23947;51.894;4.622;2022-07-22T03:22:58;6.85;;;0.73;;
38130;SDS011;23947;51.894;4.622;2022-07-22T03:25:24;6.85;;;1.20;;
38130;SDS011;23947;51.894;4.622;2022-07-22T03:27:50;8.10;;;0.80;;
38130;SDS011;23947;51.894;4.622;2022-07-22T03:30:16;10.95;;;1.23;;
38130;SDS011;23947;51.894;4.622;2022-07-22T03:32:42;9.63;;;1.50;;
38130;SDS011;23947;51.894;4.622;2022-07-22T03:35:10;6.22;;;0.68;;
38130;SDS011;23947;51.894;4.622;2022-07-22T03:37:36;9.45;;;1.08;;
38130;SDS011;23947;51.894;4.622;2022-07-22T03:40:02;9.93;;;1.10;;
38130;SDS011;23947;51.894;4.622;2022-07-22T03:42:28;11.13;;;1.08;;
38130;SDS011;23947;51.894;4.622;2022-07-22T03:44:54;10.52;;;1.00;;
38130;SDS011;23947;51.894;4.622;2022-07-22T03:47:20;7.05;;;0.80;;
38130;SDS011;23947;51.894;4.622;2022-07-22T03:49:47;6.28;;;0.80;;
38130;SDS011;23947;51.894;4.622;2022-07-22T03:52:14;6.95;;;0.68;;
38130;SDS011;23947;51.894;4.622;2022-07-22T03:54:40;10.85;;;1.08;;
38130;SDS011;23947;51.894;4.622;2022-07-22T03:57:06;13.82;;;1.10;;
38130;SDS011;23947;51.894;4.622;2022-07-22T03:59:32;10.55;;;0.80;;
38130;SDS011;23947;51.894;4.622;2022-07-22T04:01:58;8.13;;;0.70;;
38130;SDS011;23947;51.894;4.622;2022-07-22T04:04:23;7.32;;;0.90;;
38130;SDS011;23947;51.894;4.622;2022-07-22T04:06:49;7.57;;;0.85;;
38130;SDS011;23947;51.894;4.622;2022-07-22T04:09:16;10.38;;;0.88;;
38130;SDS011;23947;51.894;4.622;2022-07-22T04:11:42;9.98;;;1.05;;
38130;SDS011;23947;51.894;4.622;2022-07-22T04:14:08;9.35;;;0.80;;
38130;SDS011;23947;51.894;4.622;2022-07-22T04:16:33;7.25;;;0.82;;
38130;SDS011;23947;51.894;4.622;2022-07-22T04:19:00;12.88;;;1.00;;
38130;SDS011;23947;51.894;4.622;2022-07-22T04:21:26;7.95;;;0.80;;
38130;SDS011;23947;51.894;4.622;2022-07-22T04:23:52;11.02;;;0.80;;
38130;SDS011;23947;51.894;4.622;2022-07-22T04:26:18;5.00;;;0.70;;
38130;SDS011;23947;51.894;4.622;2022-07-22T04:28:44;7.22;;;0.77;;
38130;SDS011;23947;51.894;4.622;2022-07-22T04:31:09;6.68;;;0.95;;
38130;SDS011;23947;51.894;4.622;2022-07-22T04:33:35;6.82;;;0.88;;
38130;SDS011;23947;51.894;4.622;2022-07-22T04:36:00;7.85;;;0.80;;
38130;SDS011;23947;51.894;4.622;2022-07-22T04:38:26;8.95;;;0.75;;
38130;SDS011;23947;51.894;4.622;2022-07-22T04:40:52;7.13;;;1.10;;
38130;SDS011;23947;51.894;4.622;2022-07-22T04:43:18;9.02;;;0.90;;
38130;SDS011;23947;51.894;4.622;2022-07-22T04:45:43;7.68;;;1.10;;
38130;SDS011;23947;51.894;4.622;2022-07-22T04:48:09;8.43;;;0.80;;
38130;SDS011;23947;51.894;4.622;2022-07-22T04:50:35;6.60;;;0.80;;
38130;SDS011;23947;51.894;4.622;2022-07-22T04:53:01;9.65;;;1.30;;
38130;SDS011;23947;51.894;4.622;2022-07-22T04:55:27;11.68;;;0.98;;
38130;SDS011;23947;51.894;4.622;2022-07-22T04:57:53;8.13;;;0.90;;
38130;SDS011;23947;51.894;4.622;2022-07-22T05:00:18;8.85;;;0.80;;
38130;SDS011;23947;51.894;4.622;2022-07-22T05:02:44;8.65;;;1.00;;
38130;SDS011;23947;51.894;4.622;2022-07-22T05:05:10;8.32;;;1.27;;
38130;SDS011;23947;51.894;4.622;2022-07-22T05:07:36;11.25;;;1.15;;
38130;SDS011;23947;51.894;4.622;2022-07-22T05:10:01;6.35;;;0.68;;
38130;SDS011;23947;51.894;4.622;2022-07-22T05:12:28;8.70;;;1.10;;
38130;SDS011;23947;51.894;4.622;2022-07-22T05:14:53;10.05;;;1.17;;
38130;SDS011;23947;51.894;4.622;2022-07-22T05:17:19;4.57;;;0.65;;
38130;SDS011;23947;51.894;4.622;2022-07-22T05:19:46;8.05;;;0.93;;
38130;SDS011;23947;51.894;4.622;2022-07-22T05:22:12;6.80;;;0.90;;
38130;SDS011;23947;51.894;4.622;2022-07-22T05:24:37;5.82;;;0.50;;
38130;SDS011;23947;51.894;4.622;2022-07-22T05:27:03;5.90;;;0.63;;
38130;SDS011;23947;51.894;4.622;2022-07-22T05:29:29;7.82;;;0.80;;
38130;SDS011;23947;51.894;4.622;2022-07-22T05:31:54;5.90;;;0.57;;
38130;SDS011;23947;51.894;4.622;2022-07-22T05:34:20;7.82;;;0.80;;
38130;SDS011;23947;51.894;4.622;2022-07-22T05:36:45;6.28;;;0.40;;
38130;SDS011;23947;51.894;4.622;2022-07-22T05:39:11;9.68;;;0.88;;
38130;SDS011;23947;51.894;4.622;2022-07-22T05:41:37;10.00;;;0.65;;
38130;SDS011;23947;51.894;4.622;2022-07-22T05:44:03;6.18;;;0.50;;
38130;SDS011;23947;51.894;4.622;2022-07-22T05:46:29;12.00;;;1.05;;
38130;SDS011;23947;51.894;4.622;2022-07-22T05:48:55;9.45;;;0.88;;
38130;SDS011;23947;51.894;4.622;2022-07-22T05:51:21;6.40;;;0.88;;
38130;SDS011;23947;51.894;4.622;2022-07-22T05:53:46;10.13;;;0.75;;
38130;SDS011;23947;51.894;4.622;2022-07-22T05:56:12;10.10;;;0.80;;
38130;SDS011;23947;51.894;4.622;2022-07-22T05:58:38;8.80;;;0.80;;
38130;SDS011;23947;51.894;4.622;2022-07-22T06:01:05;7.18;;;0.60;;
38130;SDS011;23947;51.894;4.622;2022-07-22T06:03:31;7.47;;;0.70;;
38130;SDS011;23947;51.894;4.622;2022-07-22T06:05:57;6.13;;;0.52;;
38130;SDS011;23947;51.894;4.622;2022-07-22T06:08:22;7.93;;;0.70;;
38130;SDS011;23947;51.894;4.622;2022-07-22T06:10:48;10.02;;;0.75;;
38130;SDS011;23947;51.894;4.622;2022-07-22T06:13:14;4.80;;;0.90;;
38130;SDS011;23947;51.894;4.622;2022-07-22T06:15:39;7.82;;;0.85;;
38130;SDS011;23947;51.894;4.622;2022-07-22T06:18:05;8.23;;;1.25;;
38130;SDS011;23947;51.894;4.622;2022-07-22T06:20:31;6.43;;;0.70;;
38130;SDS011;23947;51.894;4.622;2022-07-22T06:22:56;6.88;;;0.73;;
38130;SDS011;23947;51.894;4.622;2022-07-22T06:25:22;7.75;;;0.90;;
38130;SDS011;23947;51.894;4.622;2022-07-22T06:27:47;8.48;;;0.75;;
38130;SDS011;23947;51.894;4.622;2022-07-22T06:30:13;6.72;;;0.70;;
38130;SDS011;23947;51.894;4.622;2022-07-22T06:32:39;6.80;;;0.90;;
38130;SDS011;23947;51.894;4.622;2022-07-22T06:35:04;6.65;;;0.77;;
38130;SDS011;23947;51.894;4.622;2022-07-22T06:37:30;8.85;;;0.70;;
38130;SDS011;23947;51.894;4.622;2022-07-22T06:39:59;6.70;;;0.77;;
38130;SDS011;23947;51.894;4.622;2022-07-22T06:42:24;4.53;;;0.35;;
38130;SDS011;23947;51.894;4.622;2022-07-22T06:44:50;6.82;;;0.50;;
38130;SDS011;23947;51.894;4.622;2022-07-22T06:49:44;6.45;;;0.50;;
38130;SDS011;23947;51.894;4.622;2022-07-22T06:52:10;5.28;;;0.70;;
38130;SDS011;23947;51.894;4.622;2022-07-22T06:54:35;5.22;;;0.50;;
38130;SDS011;23947;51.894;4.622;2022-07-22T06:57:01;8.90;;;0.60;;
38130;SDS011;23947;51.894;4.622;2022-07-22T06:59:27;6.80;;;0.98;;
38130;SDS011;23947;51.894;4.622;2022-07-22T07:01:52;5.20;;;0.50;;
38130;SDS011;23947;51.894;4.622;2022-07-22T07:04:18;6.28;;;0.50;;
38130;SDS011;23947;51.894;4.622;2022-07-22T07:06:44;4.97;;;0.60;;
38130;SDS011;23947;51.894;4.622;2022-07-22T07:09:09;5.00;;;0.50;;
38130;SDS011;23947;51.894;4.622;2022-07-22T07:11:35;8.88;;;0.60;;
38130;SDS011;23947;51.894;4.622;2022-07-22T07:14:01;5.55;;;0.65;;
38130;SDS011;23947;51.894;4.622;2022-07-22T07:16:27;5.78;;;0.50;;
38130;SDS011;23947;51.894;4.622;2022-07-22T07:18:53;8.73;;;0.60;;
38130;SDS011;23947;51.894;4.622;2022-07-22T07:21:19;6.72;;;0.55;;
38130;SDS011;23947;51.894;4.622;2022-07-22T07:23:44;8.05;;;0.50;;
38130;SDS011;23947;51.894;4.622;2022-07-22T07:26:10;4.85;;;0.30;;
38130;SDS011;23947;51.894;4.622;2022-07-22T07:28:35;6.25;;;0.60;;
38130;SDS011;23947;51.894;4.622;2022-07-22T07:31:01;10.88;;;0.63;;
38130;SDS011;23947;51.894;4.622;2022-07-22T07:33:27;6.57;;;0.43;;
38130;SDS011;23947;51.894;4.622;2022-07-22T07:35:53;4.45;;;0.50;;
38130;SDS011;23947;51.894;4.622;2022-07-22T07:38:18;6.50;;;0.47;;
38130;SDS011;23947;51.894;4.622;2022-07-22T07:40:44;8.00;;;0.45;;
38130;SDS011;23947;51.894;4.622;2022-07-22T07:43:10;5.90;;;0.40;;
38130;SDS011;23947;51.894;4.622;2022-07-22T07:45:36;8.27;;;0.60;;
38130;SDS011;23947;51.894;4.622;2022-07-22T07:48:02;6.85;;;0.70;;
38130;SDS011;23947;51.894;4.622;2022-07-22T07:50:28;4.20;;;0.60;;
38130;SDS011;23947;51.894;4.622;2022-07-22T07:52:54;5.82;;;0.50;;
38130;SDS011;23947;51.894;4.622;2022-07-22T07:55:21;3.50;;;0.52;;
38130;SDS011;23947;51.894;4.622;2022-07-22T07:57:47;5.20;;;0.50;;
38130;SDS011;23947;51.894;4.622;2022-07-22T08:00:20;5.03;;;0.57;;
38130;SDS011;23947;51.894;4.622;2022-07-22T08:02:47;4.15;;;0.32;;
38130;SDS011;23947;51.894;4.622;2022-07-22T08:05:13;5.35;;;0.40;;
38130;SDS011;23947;51.894;4.622;2022-07-22T08:07:39;4.70;;;0.50;;
38130;SDS011;23947;51.894;4.622;2022-07-22T08:10:05;7.40;;;0.60;;
38130;SDS011;23947;51.894;4.622;2022-07-22T08:12:32;3.92;;;0.40;;
38130;SDS011;23947;51.894;4.622;2022-07-22T08:14:57;5.20;;;0.55;;
38130;SDS011;23947;51.894;4.622;2022-07-22T08:17:23;3.08;;;0.50;;
38130;SDS011;23947;51.894;4.622;2022-07-22T08:19:49;6.35;;;0.40;;
38130;SDS011;23947;51.894;4.622;2022-07-22T08:22:14;6.50;;;0.50;;
38130;SDS011;23947;51.894;4.622;2022-07-22T08:24:40;4.65;;;0.60;;
38130;SDS011;23947;51.894;4.622;2022-07-22T08:27:06;5.53;;;0.40;;
38130;SDS011;23947;51.894;4.622;2022-07-22T08:29:31;6.82;;;0.50;;
38130;SDS011;23947;51.894;4.622;2022-07-22T08:31:57;5.45;;;0.43;;
38130;SDS011;23947;51.894;4.622;2022-07-22T08:34:22;5.30;;;0.40;;
38130;SDS011;23947;51.894;4.622;2022-07-22T08:36:48;6.07;;;0.47;;
38130;SDS011;23947;51.894;4.622;2022-07-22T08:39:14;6.93;;;0.60;;
38130;SDS011;23947;51.894;4.622;2022-07-22T08:41:39;4.05;;;0.40;;
38130;SDS011;23947;51.894;4.622;2022-07-22T08:44:06;6.57;;;0.60;;
38130;SDS011;23947;51.894;4.622;2022-07-22T08:46:33;5.13;;;0.50;;
38130;SDS011;23947;51.894;4.622;2022-07-22T08:48:59;4.88;;;0.50;;
38130;SDS011;23947;51.894;4.622;2022-07-22T08:51:26;5.78;;;0.50;;
38130;SDS011;23947;51.894;4.622;2022-07-22T08:53:52;3.95;;;0.50;;
38130;SDS011;23947;51.894;4.622;2022-07-22T08:56:18;3.42;;;0.40;;
38130;SDS011;23947;51.894;4.622;2022-07-22T08:58:43;7.03;;;0.80;;
38130;SDS011;23947;51.894;4.622;2022-07-22T09:01:10;4.82;;;0.60;;
38130;SDS011;23947;51.894;4.622;2022-07-22T09:03:50;7.72;;;0.82;;
38130;SDS011;23947;51.894;4.622;2022-07-22T09:06:20;4.57;;;0.50;;
38130;SDS011;23947;51.894;4.622;2022-07-22T09:11:30;5.80;;;0.70;;
38130;SDS011;23947;51.894;4.622;2022-07-22T09:13:57;4.10;;;0.55;;
38130;SDS011;23947;51.894;4.622;2022-07-22T09:16:40;6.88;;;0.60;;
38130;SDS011;23947;51.894;4.622;2022-07-22T09:19:08;3.78;;;0.50;;
38130;SDS011;23947;51.894;4.622;2022-07-22T09:21:34;3.63;;;0.50;;
38130;SDS011;23947;51.894;4.622;2022-07-22T09:24:02;3.92;;;0.63;;
38130;SDS011;23947;51.894;4.622;2022-07-22T09:26:32;7.15;;;0.50;;
38130;SDS011;23947;51.894;4.622;2022-07-22T09:29:03;9.90;;;0.82;;
38130;SDS011;23947;51.894;4.622;2022-07-22T09:31:30;6.10;;;0.60;;
38130;SDS011;23947;51.894;4.622;2022-07-22T09:34:01;4.68;;;0.50;;
38130;SDS011;23947;51.894;4.622;2022-07-22T09:36:27;5.22;;;0.73;;
38130;SDS011;23947;51.894;4.622;2022-07-22T09:38:53;6.40;;;0.63;;
38130;SDS011;23947;51.894;4.622;2022-07-22T09:41:20;5.25;;;0.57;;
38130;SDS011;23947;51.894;4.622;2022-07-22T09:43:45;4.40;;;0.50;;
38130;SDS011;23947;51.894;4.622;2022-07-22T09:46:12;4.80;;;0.60;;
38130;SDS011;23947;51.894;4.622;2022-07-22T09:48:38;7.70;;;0.73;;
38130;SDS011;23947;51.894;4.622;2022-07-22T09:51:04;7.97;;;0.60;;
38130;SDS011;23947;51.894;4.622;2022-07-22T09:53:31;2.78;;;0.63;;
38130;SDS011;23947;51.894;4.622;2022-07-22T09:55:57;7.38;;;0.70;;
38130;SDS011;23947;51.894;4.622;2022-07-22T09:58:24;5.07;;;0.70;;
38130;SDS011;23947;51.894;4.622;2022-07-22T10:03:35;5.85;;;0.80;;
38130;SDS011;23947;51.894;4.622;2022-07-22T10:06:02;8.32;;;0.63;;
38130;SDS011;23947;51.894;4.622;2022-07-22T10:08:29;5.70;;;0.80;;
38130;SDS011;23947;51.894;4.622;2022-07-22T10:10:58;5.22;;;0.60;;
38130;SDS011;23947;51.894;4.622;2022-07-22T10:13:26;5.68;;;0.60;;
38130;SDS011;23947;51.894;4.622;2022-07-22T10:15:51;6.43;;;0.60;;
38130;SDS011;23947;51.894;4.622;2022-07-22T10:18:17;9.02;;;0.85;;
38130;SDS011;23947;51.894;4.622;2022-07-22T10:20:44;9.15;;;0.90;;
38130;SDS011;23947;51.894;4.622;2022-07-22T10:23:10;5.57;;;0.70;;
38130;SDS011;23947;51.894;4.622;2022-07-22T10:25:53;6.43;;;0.80;;
38130;SDS011;23947;51.894;4.622;2022-07-22T10:28:25;6.88;;;0.80;;
38130;SDS011;23947;51.894;4.622;2022-07-22T10:31:30;6.93;;;0.70;;
38130;SDS011;23947;51.894;4.622;2022-07-22T10:33:50;10.20;;;0.75;;
38130;SDS011;23947;51.894;4.622;2022-07-22T10:41:39;6.45;;;0.70;;
38130;SDS011;23947;51.894;4.622;2022-07-22T10:44:07;6.38;;;0.88;;
38130;SDS011;23947;51.894;4.622;2022-07-22T10:49:16;5.10;;;0.60;;
38130;SDS011;23947;51.894;4.622;2022-07-22T10:57:40;5.97;;;0.80;;
38130;SDS011;23947;51.894;4.622;2022-07-22T11:00:06;4.50;;;0.82;;
38130;SDS011;23947;51.894;4.622;2022-07-22T11:02:33;4.78;;;0.70;;
38130;SDS011;23947;51.894;4.622;2022-07-22T11:05:02;6.18;;;0.70;;
38130;SDS011;23947;51.894;4.622;2022-07-22T11:07:28;6.22;;;0.73;;
38130;SDS011;23947;51.894;4.622;2022-07-22T11:10:17;4.07;;;0.50;;
38130;SDS011;23947;51.894;4.622;2022-07-22T11:12:43;6.03;;;0.70;;
38130;SDS011;23947;51.894;4.622;2022-07-22T11:15:10;4.95;;;0.70;;
38130;SDS011;23947;51.894;4.622;2022-07-22T11:17:36;7.75;;;0.80;;
38130;SDS011;23947;51.894;4.622;2022-07-22T11:20:06;5.72;;;0.93;;
38130;SDS011;23947;51.894;4.622;2022-07-22T11:22:34;5.03;;;0.70;;
38130;SDS011;23947;51.894;4.622;2022-07-22T11:25:02;6.30;;;0.88;;
38130;SDS011;23947;51.894;4.622;2022-07-22T11:27:31;8.30;;;0.80;;
38130;SDS011;23947;51.894;4.622;2022-07-22T11:29:57;6.28;;;0.82;;
38130;SDS011;23947;51.894;4.622;2022-07-22T11:32:24;3.05;;;0.60;;
38130;SDS011;23947;51.894;4.622;2022-07-22T11:34:52;6.57;;;0.77;;
38130;SDS011;23947;51.894;4.622;2022-07-22T11:37:19;3.70;;;0.60;;
38130;SDS011;23947;51.894;4.622;2022-07-22T11:39:50;6.38;;;0.70;;
38130;SDS011;23947;51.894;4.622;2022-07-22T11:42:16;7.30;;;0.73;;
38130;SDS011;23947;51.894;4.622;2022-07-22T11:44:44;5.82;;;0.95;;
38130;SDS011;23947;51.894;4.622;2022-07-22T11:47:09;4.18;;;0.68;;
38130;SDS011;23947;51.894;4.622;2022-07-22T11:49:37;7.47;;;1.00;;
38130;SDS011;23947;51.894;4.622;2022-07-22T11:52:04;5.80;;;0.60;;
38130;SDS011;23947;51.894;4.622;2022-07-22T11:54:34;8.15;;;1.10;;
38130;SDS011;23947;51.894;4.622;2022-07-22T11:56:59;4.93;;;0.70;;
38130;SDS011;23947;51.894;4.622;2022-07-22T11:59:27;4.67;;;0.50;;
38130;SDS011;23947;51.894;4.622;2022-07-22T12:01:52;3.65;;;0.63;;
38130;SDS011;23947;51.894;4.622;2022-07-22T12:04:19;5.00;;;0.80;;
38130;SDS011;23947;51.894;4.622;2022-07-22T12:06:50;5.63;;;0.80;;
38130;SDS011;23947;51.894;4.622;2022-07-22T12:09:20;5.18;;;0.70;;
38130;SDS011;23947;51.894;4.622;2022-07-22T12:11:51;4.80;;;0.80;;
38130;SDS011;23947;51.894;4.622;2022-07-22T12:14:22;7.07;;;0.65;;
38130;SDS011;23947;51.894;4.622;2022-07-22T12:16:57;6.00;;;0.60;;
38130;SDS011;23947;51.894;4.622;2022-07-22T12:19:35;4.30;;;0.55;;
38130;SDS011;23947;51.894;4.622;2022-07-22T12:24:29;3.60;;;0.52;;
38130;SDS011;23947;51.894;4.622;2022-07-22T12:29:24;5.07;;;0.80;;
38130;SDS011;23947;51.894;4.622;2022-07-22T12:31:59;6.45;;;0.98;;
38130;SDS011;23947;51.894;4.622;2022-07-22T12:34:30;4.57;;;0.88;;
38130;SDS011;23947;51.894;4.622;2022-07-22T12:36:55;6.13;;;1.08;;
38130;SDS011;23947;51.894;4.622;2022-07-22T12:39:21;5.45;;;0.90;;
38130;SDS011;23947;51.894;4.622;2022-07-22T12:41:48;5.60;;;1.10;;
38130;SDS011;23947;51.894;4.622;2022-07-22T12:44:19;8.10;;;1.17;;
38130;SDS011;23947;51.894;4.622;2022-07-22T12:46:47;6.47;;;0.90;;
38130;SDS011;23947;51.894;4.622;2022-07-22T12:49:18;6.40;;;0.88;;
38130;SDS011;23947;51.894;4.622;2022-07-22T12:57:00;6.68;;;1.20;;
38130;SDS011;23947;51.894;4.622;2022-07-22T12:59:26;5.00;;;0.95;;
38130;SDS011;23947;51.894;4.622;2022-07-22T13:01:52;9.98;;;1.65;;
38130;SDS011;23947;51.894;4.622;2022-07-22T13:04:17;5.28;;;1.42;;
38130;SDS011;23947;51.894;4.622;2022-07-22T13:06:43;6.28;;;1.08;;
38130;SDS011;23947;51.894;4.622;2022-07-22T13:09:09;5.20;;;1.02;;
38130;SDS011;23947;51.894;4.622;2022-07-22T13:11:34;6.43;;;1.17;;
38130;SDS011;23947;51.894;4.622;2022-07-22T13:14:09;4.40;;;1.10;;
38130;SDS011;23947;51.894;4.622;2022-07-22T13:16:38;4.90;;;1.25;;
38130;SDS011;23947;51.894;4.622;2022-07-22T13:19:04;5.18;;;1.38;;
38130;SDS011;23947;51.894;4.622;2022-07-22T13:21:30;10.32;;;1.48;;
38130;SDS011;23947;51.894;4.622;2022-07-22T13:23:55;9.45;;;1.90;;
38130;SDS011;23947;51.894;4.622;2022-07-22T13:26:21;8.23;;;1.33;;
38130;SDS011;23947;51.894;4.622;2022-07-22T13:28:47;6.70;;;1.60;;
38130;SDS011;23947;51.894;4.622;2022-07-22T13:31:13;8.27;;;1.58;;
38130;SDS011;23947;51.894;4.622;2022-07-22T13:33:38;7.78;;;1.48;;
38130;SDS011;23947;51.894;4.622;2022-07-22T13:36:04;7.40;;;0.90;;
38130;SDS011;23947;51.894;4.622;2022-07-22T13:38:30;8.05;;;1.02;;
38130;SDS011;23947;51.894;4.622;2022-07-22T13:40:56;4.93;;;1.27;;
38130;SDS011;23947;51.894;4.622;2022-07-22T13:43:23;6.38;;;0.90;;
38130;SDS011;23947;51.894;4.622;2022-07-22T13:45:49;9.68;;;0.77;;
38130;SDS011;23947;51.894;4.622;2022-07-22T13:48:16;6.43;;;1.40;;
38130;SDS011;23947;51.894;4.622;2022-07-22T13:50:45;4.20;;;0.88;;
38130;SDS011;23947;51.894;4.622;2022-07-22T13:53:11;9.15;;;0.88;;
38130;SDS011;23947;51.894;4.622;2022-07-22T13:55:37;6.88;;;0.90;;
38130;SDS011;23947;51.894;4.622;2022-07-22T13:58:03;5.85;;;1.00;;
38130;SDS011;23947;51.894;4.622;2022-07-22T14:00:30;4.25;;;1.05;;
38130;SDS011;23947;51.894;4.622;2022-07-22T14:02:55;6.07;;;0.88;;
38130;SDS011;23947;51.894;4.622;2022-07-22T14:05:21;4.40;;;0.65;;
38130;SDS011;23947;51.894;4.622;2022-07-22T14:07:47;8.80;;;0.95;;
38130;SDS011;23947;51.894;4.622;2022-07-22T14:10:13;6.03;;;1.00;;
38130;SDS011;23947;51.894;4.622;2022-07-22T14:12:39;4.00;;;0.60;;
38130;SDS011;23947;51.894;4.622;2022-07-22T14:15:07;3.85;;;0.57;;
38130;SDS011;23947;51.894;4.622;2022-07-22T14:17:33;6.10;;;1.13;;
38130;SDS011;23947;51.894;4.622;2022-07-22T14:19:59;6.53;;;0.80;;
38130;SDS011;23947;51.894;4.622;2022-07-22T14:22:25;6.03;;;0.90;;
38130;SDS011;23947;51.894;4.622;2022-07-22T14:24:50;5.65;;;0.60;;
38130;SDS011;23947;51.894;4.622;2022-07-22T14:27:16;6.72;;;0.90;;
38130;SDS011;23947;51.894;4.622;2022-07-22T14:29:42;3.28;;;0.60;;
38130;SDS011;23947;51.894;4.622;2022-07-22T14:32:08;4.10;;;0.77;;
38130;SDS011;23947;51.894;4.622;2022-07-22T14:34:34;3.45;;;0.55;;
38130;SDS011;23947;51.894;4.622;2022-07-22T14:36:59;5.60;;;0.63;;
38130;SDS011;23947;51.894;4.622;2022-07-22T14:39:25;5.45;;;0.60;;
38130;SDS011;23947;51.894;4.622;2022-07-22T14:41:51;4.68;;;0.60;;
38130;SDS011;23947;51.894;4.622;2022-07-22T14:44:16;4.68;;;0.60;;
38130;SDS011;23947;51.894;4.622;2022-07-22T14:46:42;8.18;;;1.02;;
38130;SDS011;23947;51.894;4.622;2022-07-22T14:49:08;7.35;;;0.60;;
38130;SDS011;23947;51.894;4.622;2022-07-22T14:51:34;6.28;;;0.60;;
38130;SDS011;23947;51.894;4.622;2022-07-22T14:53:59;3.78;;;0.60;;
38130;SDS011;23947;51.894;4.622;2022-07-22T14:56:25;4.45;;;0.60;;
38130;SDS011;23947;51.894;4.622;2022-07-22T14:58:51;3.63;;;0.40;;
38130;SDS011;23947;51.894;4.622;2022-07-22T15:01:16;4.13;;;0.60;;
38130;SDS011;23947;51.894;4.622;2022-07-22T15:03:42;4.38;;;0.60;;
38130;SDS011;23947;51.894;4.622;2022-07-22T15:06:08;2.70;;;0.50;;
38130;SDS011;23947;51.894;4.622;2022-07-22T15:08:35;3.78;;;0.50;;
38130;SDS011;23947;51.894;4.622;2022-07-22T15:11:00;2.95;;;0.60;;
38130;SDS011;23947;51.894;4.622;2022-07-22T15:13:27;4.43;;;0.50;;